sensor_id;sensor_type;location;lat;lon;timestamp;pressure;altitude;pressure_sealevel;temperature;humidity
6423;BME280;3244;42.708;23.288;2024-01-15T00:00:13;56616.03;;;-142.91;100.00
6423;BME280;3244;42.708;23.288;2024-01-15T00:02:39;56616.03;;;-142.91;100.00
6423;BME280;3244;42.708;23.288;2024-01-15T00:05:07;56616.03;;;-142.91;100.00
6423;BME280;3244;42.708;23.288;2024-01-15T00:07:35;56616.03;;;-142.91;100.00
6423;BME280;3244;42.708;23.288;2024-01-15T00:10:01;56616.03;;;-142.91;100.00
6423;BME280;3244;42.708;23.288;2024-01-15T00:12:28;56616.03;;;-142.91;100.00
6423;BME280;3244;42.708;23.288;2024-01-15T00:14:55;56616.03;;;-142.91;100.00
6423;BME280;3244;42.708;23.288;2024-01-15T00:17:21;56616.03;;;-142.91;100.00
6423;BME280;3244;42.708;23.288;2024-01-15T00:22:16;56616.03;;;-142.91;100.00
6423;BME280;3244;42.708;23.288;2024-01-15T00:24:42;56616.03;;;-142.91;100.00
6423;BME280;3244;42.708;23.288;2024-01-15T00:27:09;56616.03;;;-142.91;100.00
6423;BME280;3244;42.708;23.288;2024-01-15T00:29:36;56616.03;;;-142.91;100.00
6423;BME280;3244;42.708;23.288;2024-01-15T00:32:02;56616.03;;;-142.91;100.00
6423;BME280;3244;42.708;23.288;2024-01-15T00:34:29;56616.03;;;-142.91;100.00
6423;BME280;3244;42.708;23.288;2024-01-15T00:36:56;56616.03;;;-142.91;100.00
6423;BME280;3244;42.708;23.288;2024-01-15T00:39:24;56616.03;;;-142.91;100.00
6423;BME280;3244;42.708;23.288;2024-01-15T00:41:51;56616.03;;;-142.91;100.00
6423;BME280;3244;42.708;23.288;2024-01-15T00:44:17;56616.03;;;-142.91;100.00
6423;BME280;3244;42.708;23.288;2024-01-15T00:46:44;56616.03;;;-142.91;100.00
6423;BME280;3244;42.708;23.288;2024-01-15T00:49:12;56616.03;;;-142.91;100.00
6423;BME280;3244;42.708;23.288;2024-01-15T00:51:39;56616.03;;;-142.91;100.00
6423;BME280;3244;42.708;23.288;2024-01-15T00:54:06;56616.03;;;-142.91;100.00
6423;BME280;3244;42.708;23.288;2024-01-15T00:56:33;56616.03;;;-142.91;100.00
6423;BME280;3244;42.708;23.288;2024-01-15T00:59:00;56616.03;;;-142.91;100.00
6423;BME280;3244;42.708;23.288;2024-01-15T01:01:27;56616.03;;;-142.91;100.00
6423;BME280;3244;42.708;23.288;2024-01-15T01:03:53;56616.03;;;-142.91;100.00
6423;BME280;3244;42.708;23.288;2024-01-15T01:06:20;56616.03;;;-142.91;100.00
6423;BME280;3244;42.708;23.288;2024-01-15T01:08:47;56616.03;;;-142.91;100.00
6423;BME280;3244;42.708;23.288;2024-01-15T01:11:13;56616.03;;;-142.91;100.00
6423;BME280;3244;42.708;23.288;2024-01-15T01:13:42;56616.03;;;-142.91;100.00
6423;BME280;3244;42.708;23.288;2024-01-15T01:16:08;56616.03;;;-142.91;100.00
6423;BME280;3244;42.708;23.288;2024-01-15T01:18:35;56616.03;;;-142.91;100.00
6423;BME280;3244;42.708;23.288;2024-01-15T01:21:01;56616.03;;;-142.91;100.00
6423;BME280;3244;42.708;23.288;2024-01-15T01:23:28;56616.03;;;-142.91;100.00
6423;BME280;3244;42.708;23.288;2024-01-15T01:25:55;56616.03;;;-142.91;100.00
6423;BME280;3244;42.708;23.288;2024-01-15T01:28:21;56616.03;;;-142.91;100.00
6423;BME280;3244;42.708;23.288;2024-01-15T01:30:51;56616.03;;;-142.91;100.00
6423;BME280;3244;42.708;23.288;2024-01-15T01:33:18;56616.03;;;-142.91;100.00
6423;BME280;3244;42.708;23.288;2024-01-15T01:35:45;56616.03;;;-142.91;100.00
6423;BME280;3244;42.708;23.288;2024-01-15T01:38:12;56616.03;;;-142.91;100.00
6423;BME280;3244;42.708;23.288;2024-01-15T01:40:38;56616.03;;;-142.91;100.00
6423;BME280;3244;42.708;23.288;2024-01-15T01:43:05;56616.03;;;-142.91;100.00
6423;BME280;3244;42.708;23.288;2024-01-15T01:45:32;56616.03;;;-142.91;100.00
6423;BME280;3244;42.708;23.288;2024-01-15T01:48:00;56616.03;;;-142.91;100.00
6423;BME280;3244;42.708;23.288;2024-01-15T01:50:28;56616.03;;;-142.91;100.00
6423;BME280;3244;42.708;23.288;2024-01-15T01:52:57;56616.03;;;-142.91;100.00
6423;BME280;3244;42.708;23.288;2024-01-15T01:55:26;56616.03;;;-142.91;100.00
6423;BME280;3244;42.708;23.288;2024-01-15T01:57:54;56616.03;;;-142.91;100.00
6423;BME280;3244;42.708;23.288;2024-01-15T02:00:21;56616.03;;;-142.91;100.00
6423;BME280;3244;42.708;23.288;2024-01-15T02:02:49;56616.03;;;-142.91;100.00
6423;BME280;3244;42.708;23.288;2024-01-15T02:05:18;56616.03;;;-142.91;100.00
6423;BME280;3244;42.708;23.288;2024-01-15T02:07:47;56616.03;;;-142.91;100.00
6423;BME280;3244;42.708;23.288;2024-01-15T02:10:14;56616.03;;;-142.91;100.00
6423;BME280;3244;42.708;23.288;2024-01-15T02:12:42;56616.03;;;-142.91;100.00
6423;BME280;3244;42.708;23.288;2024-01-15T02:15:09;56616.03;;;-142.91;100.00
6423;BME280;3244;42.708;23.288;2024-01-15T02:20:24;56616.03;;;-142.91;100.00
6423;BME280;3244;42.708;23.288;2024-01-15T02:22:50;56616.03;;;-142.91;100.00
6423;BME280;3244;42.708;23.288;2024-01-15T02:25:18;56616.03;;;-142.91;100.00
6423;BME280;3244;42.708;23.288;2024-01-15T02:27:46;56616.03;;;-142.91;100.00
6423;BME280;3244;42.708;23.288;2024-01-15T02:30:13;56616.03;;;-142.91;100.00
6423;BME280;3244;42.708;23.288;2024-01-15T02:32:39;56616.03;;;-142.91;100.00
6423;BME280;3244;42.708;23.288;2024-01-15T02:35:06;56616.03;;;-142.91;100.00
6423;BME280;3244;42.708;23.288;2024-01-15T02:37:33;56616.03;;;-142.91;100.00
6423;BME280;3244;42.708;23.288;2024-01-15T02:40:00;56616.03;;;-142.91;100.00
6423;BME280;3244;42.708;23.288;2024-01-15T02:42:28;56616.03;;;-142.91;100.00
6423;BME280;3244;42.708;23.288;2024-01-15T02:44:54;56616.03;;;-142.91;100.00
6423;BME280;3244;42.708;23.288;2024-01-15T02:47:21;56616.03;;;-142.91;100.00
6423;BME280;3244;42.708;23.288;2024-01-15T02:49:47;56616.03;;;-142.91;100.00
6423;BME280;3244;42.708;23.288;2024-01-15T02:52:14;56616.03;;;-142.91;100.00
6423;BME280;3244;42.708;23.288;2024-01-15T02:54:41;56616.03;;;-142.91;100.00
6423;BME280;3244;42.708;23.288;2024-01-15T02:57:08;56616.03;;;-142.91;100.00
6423;BME280;3244;42.708;23.288;2024-01-15T02:59:36;56616.03;;;-142.91;100.00
6423;BME280;3244;42.708;23.288;2024-01-15T03:02:02;56616.03;;;-142.91;100.00
6423;BME280;3244;42.708;23.288;2024-01-15T03:04:29;56616.03;;;-142.91;100.00
6423;BME280;3244;42.708;23.288;2024-01-15T03:09:22;56616.03;;;-142.91;100.00
6423;BME280;3244;42.708;23.288;2024-01-15T03:14:15;56616.03;;;-142.91;100.00
6423;BME280;3244;42.708;23.288;2024-01-15T03:16:43;56616.03;;;-142.91;100.00
6423;BME280;3244;42.708;23.288;2024-01-15T03:21:36;56616.03;;;-142.91;100.00
6423;BME280;3244;42.708;23.288;2024-01-15T03:24:03;56616.03;;;-142.91;100.00
6423;BME280;3244;42.708;23.288;2024-01-15T03:26:30;56616.03;;;-142.91;100.00
6423;BME280;3244;42.708;23.288;2024-01-15T03:28:56;56616.03;;;-142.91;100.00
6423;BME280;3244;42.708;23.288;2024-01-15T03:31:23;56616.03;;;-142.91;100.00
6423;BME280;3244;42.708;23.288;2024-01-15T03:33:51;56616.03;;;-142.91;100.00
6423;BME280;3244;42.708;23.288;2024-01-15T03:36:17;56616.03;;;-142.91;100.00
6423;BME280;3244;42.708;23.288;2024-01-15T03:38:44;56616.03;;;-142.91;100.00
6423;BME280;3244;42.708;23.288;2024-01-15T03:41:11;56616.03;;;-142.91;100.00
6423;BME280;3244;42.708;23.288;2024-01-15T03:43:37;56616.03;;;-142.91;100.00
6423;BME280;3244;42.708;23.288;2024-01-15T03:46:04;56616.03;;;-142.91;100.00
6423;BME280;3244;42.708;23.288;2024-01-15T03:48:31;56616.03;;;-142.91;100.00
6423;BME280;3244;42.708;23.288;2024-01-15T03:50:59;56616.03;;;-142.91;100.00
6423;BME280;3244;42.708;23.288;2024-01-15T03:53:26;56616.03;;;-142.91;100.00
6423;BME280;3244;42.708;23.288;2024-01-15T03:55:53;56616.03;;;-142.91;100.00
6423;BME280;3244;42.708;23.288;2024-01-15T03:58:19;56616.03;;;-142.91;100.00
6423;BME280;3244;42.708;23.288;2024-01-15T04:00:46;56616.03;;;-142.91;100.00
6423;BME280;3244;42.708;23.288;2024-01-15T04:03:12;56616.03;;;-142.91;100.00
6423;BME280;3244;42.708;23.288;2024-01-15T04:05:39;56616.03;;;-142.91;100.00
6423;BME280;3244;42.708;23.288;2024-01-15T04:08:07;56616.03;;;-142.91;100.00
6423;BME280;3244;42.708;23.288;2024-01-15T04:10:34;56616.03;;;-142.91;100.00
6423;BME280;3244;42.708;23.288;2024-01-15T04:13:00;56616.03;;;-142.91;100.00
6423;BME280;3244;42.708;23.288;2024-01-15T04:15:28;56616.03;;;-142.91;100.00
6423;BME280;3244;42.708;23.288;2024-01-15T04:20:21;56616.03;;;-142.91;100.00
6423;BME280;3244;42.708;23.288;2024-01-15T04:27:42;56616.03;;;-142.91;100.00
6423;BME280;3244;42.708;23.288;2024-01-15T04:30:10;56616.03;;;-142.91;100.00
6423;BME280;3244;42.708;23.288;2024-01-15T04:32:36;56616.03;;;-142.91;100.00
6423;BME280;3244;42.708;23.288;2024-01-15T04:35:04;56616.03;;;-142.91;100.00
6423;BME280;3244;42.708;23.288;2024-01-15T04:37:30;56616.03;;;-142.91;100.00
6423;BME280;3244;42.708;23.288;2024-01-15T04:39:57;56616.03;;;-142.91;100.00
6423;BME280;3244;42.708;23.288;2024-01-15T04:42:25;56616.03;;;-142.91;100.00
6423;BME280;3244;42.708;23.288;2024-01-15T04:44:51;56616.03;;;-142.91;100.00
6423;BME280;3244;42.708;23.288;2024-01-15T04:52:11;56616.03;;;-142.91;100.00
6423;BME280;3244;42.708;23.288;2024-01-15T04:54:38;56616.03;;;-142.91;100.00
6423;BME280;3244;42.708;23.288;2024-01-15T04:57:04;56616.03;;;-142.91;100.00
6423;BME280;3244;42.708;23.288;2024-01-15T04:59:32;56616.03;;;-142.91;100.00
6423;BME280;3244;42.708;23.288;2024-01-15T05:01:59;56616.03;;;-142.91;100.00
6423;BME280;3244;42.708;23.288;2024-01-15T05:06:53;56616.03;;;-142.91;100.00
6423;BME280;3244;42.708;23.288;2024-01-15T05:09:20;56616.03;;;-142.91;100.00
6423;BME280;3244;42.708;23.288;2024-01-15T05:11:46;56616.03;;;-142.91;100.00
6423;BME280;3244;42.708;23.288;2024-01-15T05:14:13;56616.03;;;-142.91;100.00
6423;BME280;3244;42.708;23.288;2024-01-15T05:16:46;56616.03;;;-142.91;100.00
6423;BME280;3244;42.708;23.288;2024-01-15T05:19:13;56616.03;;;-142.91;100.00
6423;BME280;3244;42.708;23.288;2024-01-15T05:21:40;56616.03;;;-142.91;100.00
6423;BME280;3244;42.708;23.288;2024-01-15T05:24:07;56616.03;;;-142.91;100.00
6423;BME280;3244;42.708;23.288;2024-01-15T05:29:00;56616.03;;;-142.91;100.00
6423;BME280;3244;42.708;23.288;2024-01-15T05:31:27;56616.03;;;-142.91;100.00
6423;BME280;3244;42.708;23.288;2024-01-15T05:33:55;56616.03;;;-142.91;100.00
6423;BME280;3244;42.708;23.288;2024-01-15T05:36:22;56616.03;;;-142.91;100.00
6423;BME280;3244;42.708;23.288;2024-01-15T05:38:48;56616.03;;;-142.91;100.00
6423;BME280;3244;42.708;23.288;2024-01-15T05:41:15;56616.03;;;-142.91;100.00
6423;BME280;3244;42.708;23.288;2024-01-15T05:43:42;56616.03;;;-142.91;100.00
6423;BME280;3244;42.708;23.288;2024-01-15T05:46:08;56616.03;;;-142.91;100.00
6423;BME280;3244;42.708;23.288;2024-01-15T05:51:03;56616.03;;;-142.91;100.00
6423;BME280;3244;42.708;23.288;2024-01-15T05:53:29;56616.03;;;-142.91;100.00
6423;BME280;3244;42.708;23.288;2024-01-15T05:55:56;56616.03;;;-142.91;100.00
6423;BME280;3244;42.708;23.288;2024-01-15T05:58:22;56616.03;;;-142.91;100.00
6423;BME280;3244;42.708;23.288;2024-01-15T06:00:49;56616.03;;;-142.91;100.00
6423;BME280;3244;42.708;23.288;2024-01-15T06:03:16;56616.03;;;-142.91;100.00
6423;BME280;3244;42.708;23.288;2024-01-15T06:05:42;56616.03;;;-142.91;100.00
6423;BME280;3244;42.708;23.288;2024-01-15T06:08:10;56616.03;;;-142.91;100.00
6423;BME280;3244;42.708;23.288;2024-01-15T06:10:37;56616.03;;;-142.91;100.00
6423;BME280;3244;42.708;23.288;2024-01-15T06:13:04;56616.03;;;-142.91;100.00
6423;BME280;3244;42.708;23.288;2024-01-15T06:15:30;56616.03;;;-142.91;100.00
6423;BME280;3244;42.708;23.288;2024-01-15T06:17:57;56616.03;;;-142.91;100.00
6423;BME280;3244;42.708;23.288;2024-01-15T06:20:24;56616.03;;;-142.91;100.00
6423;BME280;3244;42.708;23.288;2024-01-15T06:22:50;56616.03;;;-142.91;100.00
6423;BME280;3244;42.708;23.288;2024-01-15T06:25:18;56616.03;;;-142.91;100.00
6423;BME280;3244;42.708;23.288;2024-01-15T06:27:45;56616.03;;;-142.91;100.00
6423;BME280;3244;42.708;23.288;2024-01-15T06:30:12;56616.03;;;-142.91;100.00
6423;BME280;3244;42.708;23.288;2024-01-15T06:32:39;56616.03;;;-142.91;100.00
6423;BME280;3244;42.708;23.288;2024-01-15T06:35:06;56616.03;;;-142.91;100.00
6423;BME280;3244;42.708;23.288;2024-01-15T06:37:33;56616.03;;;-142.91;100.00
6423;BME280;3244;42.708;23.288;2024-01-15T06:39:59;56616.03;;;-142.91;100.00
6423;BME280;3244;42.708;23.288;2024-01-15T06:42:27;56616.03;;;-142.91;100.00
6423;BME280;3244;42.708;23.288;2024-01-15T06:44:54;56616.03;;;-142.91;100.00
6423;BME280;3244;42.708;23.288;2024-01-15T06:47:20;56616.03;;;-142.91;100.00
6423;BME280;3244;42.708;23.288;2024-01-15T06:49:47;56616.03;;;-142.91;100.00
6423;BME280;3244;42.708;23.288;2024-01-15T06:52:15;56616.03;;;-142.91;100.00
6423;BME280;3244;42.708;23.288;2024-01-15T06:54:42;56616.03;;;-142.91;100.00
6423;BME280;3244;42.708;23.288;2024-01-15T06:57:09;56616.03;;;-142.91;100.00
6423;BME280;3244;42.708;23.288;2024-01-15T06:59:37;56616.03;;;-142.91;100.00
6423;BME280;3244;42.708;23.288;2024-01-15T07:02:04;56616.03;;;23.25;100.00
6423;BME280;3244;42.708;23.288;2024-01-15T07:06:57;56616.03;;;-142.91;100.00
6423;BME280;3244;42.708;23.288;2024-01-15T07:09:23;56616.03;;;-142.91;100.00
6423;BME280;3244;42.708;23.288;2024-01-15T07:11:50;56616.03;;;-142.91;100.00
6423;BME280;3244;42.708;23.288;2024-01-15T07:14:17;56616.03;;;-142.91;100.00
6423;BME280;3244;42.708;23.288;2024-01-15T07:16:45;56616.03;;;-142.91;100.00
6423;BME280;3244;42.708;23.288;2024-01-15T07:19:11;56616.03;;;-142.91;100.00
6423;BME280;3244;42.708;23.288;2024-01-15T07:21:38;56616.03;;;-142.91;100.00
6423;BME280;3244;42.708;23.288;2024-01-15T07:24:05;56616.03;;;-142.91;100.00
6423;BME280;3244;42.708;23.288;2024-01-15T07:26:32;56616.03;;;-142.91;100.00
6423;BME280;3244;42.708;23.288;2024-01-15T07:28:58;56616.03;;;-142.91;100.00
6423;BME280;3244;42.708;23.288;2024-01-15T07:31:25;56616.03;;;-142.91;100.00
6423;BME280;3244;42.708;23.288;2024-01-15T07:33:54;56616.03;;;23.25;100.00
6423;BME280;3244;42.708;23.288;2024-01-15T07:36:21;56616.03;;;-142.91;100.00
6423;BME280;3244;42.708;23.288;2024-01-15T07:38:47;56616.03;;;-142.91;100.00
6423;BME280;3244;42.708;23.288;2024-01-15T07:41:14;56616.03;;;-142.91;100.00
6423;BME280;3244;42.708;23.288;2024-01-15T07:43:40;56616.03;;;-142.91;100.00
6423;BME280;3244;42.708;23.288;2024-01-15T07:46:07;56616.03;;;-142.91;100.00
6423;BME280;3244;42.708;23.288;2024-01-15T07:48:34;56616.03;;;-142.91;100.00
6423;BME280;3244;42.708;23.288;2024-01-15T07:51:02;56616.03;;;-142.91;100.00
6423;BME280;3244;42.708;23.288;2024-01-15T07:53:29;56616.03;;;-142.91;100.00
6423;BME280;3244;42.708;23.288;2024-01-15T07:55:56;56616.03;;;-142.91;100.00
6423;BME280;3244;42.708;23.288;2024-01-15T07:58:22;56616.03;;;-142.91;100.00
6423;BME280;3244;42.708;23.288;2024-01-15T08:00:49;56616.03;;;-142.91;100.00
6423;BME280;3244;42.708;23.288;2024-01-15T08:03:16;56616.03;;;-142.91;100.00
6423;BME280;3244;42.708;23.288;2024-01-15T08:05:42;56616.03;;;-142.91;100.00
6423;BME280;3244;42.708;23.288;2024-01-15T08:08:10;56616.03;;;-142.91;100.00
6423;BME280;3244;42.708;23.288;2024-01-15T08:10:37;56616.03;;;-142.91;100.00
6423;BME280;3244;42.708;23.288;2024-01-15T08:13:04;56616.03;;;-142.91;100.00
6423;BME280;3244;42.708;23.288;2024-01-15T08:15:33;56616.03;;;-142.91;100.00
6423;BME280;3244;42.708;23.288;2024-01-15T08:17:59;56616.03;;;-142.91;100.00
6423;BME280;3244;42.708;23.288;2024-01-15T08:20:26;56616.03;;;-142.91;100.00
6423;BME280;3244;42.708;23.288;2024-01-15T08:25:20;56616.03;;;-142.91;100.00
6423;BME280;3244;42.708;23.288;2024-01-15T08:27:47;56616.03;;;-142.91;100.00
6423;BME280;3244;42.708;23.288;2024-01-15T08:30:14;56616.03;;;-142.91;100.00
6423;BME280;3244;42.708;23.288;2024-01-15T08:32:41;56616.03;;;-142.91;100.00
6423;BME280;3244;42.708;23.288;2024-01-15T08:35:08;56616.03;;;-142.91;100.00
6423;BME280;3244;42.708;23.288;2024-01-15T08:40:01;56616.03;;;-142.91;100.00
6423;BME280;3244;42.708;23.288;2024-01-15T08:42:30;56616.03;;;-142.91;100.00
6423;BME280;3244;42.708;23.288;2024-01-15T08:44:56;56616.03;;;-142.91;100.00
6423;BME280;3244;42.708;23.288;2024-01-15T08:47:23;56616.03;;;-142.91;100.00
6423;BME280;3244;42.708;23.288;2024-01-15T08:49:51;56616.03;;;-142.91;100.00
6423;BME280;3244;42.708;23.288;2024-01-15T08:52:17;56616.03;;;-142.91;100.00
6423;BME280;3244;42.708;23.288;2024-01-15T08:54:45;56616.03;;;-142.91;100.00
6423;BME280;3244;42.708;23.288;2024-01-15T08:57:12;56616.03;;;-142.91;100.00
6423;BME280;3244;42.708;23.288;2024-01-15T08:59:40;56616.03;;;-142.91;100.00
6423;BME280;3244;42.708;23.288;2024-01-15T09:02:07;56616.03;;;-142.91;100.00
6423;BME280;3244;42.708;23.288;2024-01-15T09:04:34;56616.03;;;-142.91;100.00
6423;BME280;3244;42.708;23.288;2024-01-15T09:07:00;56616.03;;;-142.91;100.00
6423;BME280;3244;42.708;23.288;2024-01-15T09:09:27;56616.03;;;-142.91;100.00
6423;BME280;3244;42.708;23.288;2024-01-15T09:11:54;56616.03;;;-142.91;100.00
6423;BME280;3244;42.708;23.288;2024-01-15T09:14:20;56616.03;;;-142.91;100.00
6423;BME280;3244;42.708;23.288;2024-01-15T09:16:49;56616.03;;;-142.91;100.00
6423;BME280;3244;42.708;23.288;2024-01-15T09:19:15;56616.03;;;-142.91;100.00
6423;BME280;3244;42.708;23.288;2024-01-15T09:21:42;56616.03;;;-142.91;100.00
6423;BME280;3244;42.708;23.288;2024-01-15T09:24:08;56616.03;;;-142.91;100.00
6423;BME280;3244;42.708;23.288;2024-01-15T09:26:35;56616.03;;;-142.91;100.00
6423;BME280;3244;42.708;23.288;2024-01-15T09:29:02;56616.03;;;-142.91;100.00
6423;BME280;3244;42.708;23.288;2024-01-15T09:31:29;56616.03;;;-142.91;100.00
6423;BME280;3244;42.708;23.288;2024-01-15T09:33:58;56616.03;;;-142.91;100.00
6423;BME280;3244;42.708;23.288;2024-01-15T09:36:25;56616.03;;;-142.91;100.00
6423;BME280;3244;42.708;23.288;2024-01-15T09:41:18;56616.03;;;-142.91;100.00
6423;BME280;3244;42.708;23.288;2024-01-15T09:43:45;56616.03;;;23.25;100.00
6423;BME280;3244;42.708;23.288;2024-01-15T09:46:12;56616.03;;;23.25;100.00
6423;BME280;3244;42.708;23.288;2024-01-15T09:48:39;56616.03;;;-142.91;100.00
6423;BME280;3244;42.708;23.288;2024-01-15T09:51:07;56616.03;;;23.29;100.00
6423;BME280;3244;42.708;23.288;2024-01-15T09:53:35;56616.03;;;-142.91;100.00
6423;BME280;3244;42.708;23.288;2024-01-15T09:56:04;56616.03;;;-142.91;100.00
6423;BME280;3244;42.708;23.288;2024-01-15T09:58:32;56616.03;;;-142.91;100.00
6423;BME280;3244;42.708;23.288;2024-01-15T10:01:00;56616.03;;;-142.91;100.00
6423;BME280;3244;42.708;23.288;2024-01-15T10:03:28;56616.03;;;-142.91;100.00
6423;BME280;3244;42.708;23.288;2024-01-15T10:05:56;56616.03;;;-142.91;100.00
6423;BME280;3244;42.708;23.288;2024-01-15T10:08:26;56616.03;;;-142.91;100.00
6423;BME280;3244;42.708;23.288;2024-01-15T10:10:52;56616.03;;;-142.91;100.00
6423;BME280;3244;42.708;23.288;2024-01-15T10:13:19;56616.03;;;-142.91;100.00
6423;BME280;3244;42.708;23.288;2024-01-15T10:15:47;56616.03;;;-142.91;100.00
6423;BME280;3244;42.708;23.288;2024-01-15T10:18:13;56616.03;;;-142.91;100.00
6423;BME280;3244;42.708;23.288;2024-01-15T10:20:40;56616.03;;;23.25;100.00
6423;BME280;3244;42.708;23.288;2024-01-15T10:23:07;56616.03;;;-142.91;100.00
6423;BME280;3244;42.708;23.288;2024-01-15T10:25:36;56616.03;;;-142.91;100.00
6423;BME280;3244;42.708;23.288;2024-01-15T10:28:04;56616.03;;;23.25;100.00
6423;BME280;3244;42.708;23.288;2024-01-15T10:30:32;56616.03;;;-142.91;100.00
6423;BME280;3244;42.708;23.288;2024-01-15T10:32:59;56616.03;;;-142.91;100.00
6423;BME280;3244;42.708;23.288;2024-01-15T10:35:27;56616.03;;;-142.91;100.00
6423;BME280;3244;42.708;23.288;2024-01-15T10:37:54;56616.03;;;23.26;100.00
6423;BME280;3244;42.708;23.288;2024-01-15T10:40:21;56616.03;;;-142.91;100.00
6423;BME280;3244;42.708;23.288;2024-01-15T10:42:49;56616.03;;;23.26;100.00
6423;BME280;3244;42.708;23.288;2024-01-15T10:45:16;56616.03;;;23.25;100.00
6423;BME280;3244;42.708;23.288;2024-01-15T10:47:42;56616.03;;;23.25;100.00
6423;BME280;3244;42.708;23.288;2024-01-15T10:50:09;56616.03;;;23.26;100.00
6423;BME280;3244;42.708;23.288;2024-01-15T10:52:37;56616.03;;;23.26;100.00
6423;BME280;3244;42.708;23.288;2024-01-15T10:55:06;56616.03;;;23.26;100.00
6423;BME280;3244;42.708;23.288;2024-01-15T10:57:34;56616.03;;;23.25;100.00
6423;BME280;3244;42.708;23.288;2024-01-15T11:00:03;56616.03;;;23.25;100.00
6423;BME280;3244;42.708;23.288;2024-01-15T11:02:31;56616.03;;;23.25;100.00
6423;BME280;3244;42.708;23.288;2024-01-15T11:04:59;56616.03;;;-142.91;100.00
6423;BME280;3244;42.708;23.288;2024-01-15T11:07:26;56616.03;;;-142.91;100.00
6423;BME280;3244;42.708;23.288;2024-01-15T11:09:53;56616.03;;;23.25;100.00
6423;BME280;3244;42.708;23.288;2024-01-15T11:12:19;56616.03;;;-142.91;100.00
6423;BME280;3244;42.708;23.288;2024-01-15T11:14:47;56616.03;;;23.26;100.00
6423;BME280;3244;42.708;23.288;2024-01-15T11:17:16;56616.03;;;23.26;100.00
6423;BME280;3244;42.708;23.288;2024-01-15T11:19:44;56616.03;;;23.41;100.00
6423;BME280;3244;42.708;23.288;2024-01-15T11:25:13;56616.03;;;23.25;100.00
6423;BME280;3244;42.708;23.288;2024-01-15T11:27:41;56616.03;;;23.25;100.00
6423;BME280;3244;42.708;23.288;2024-01-15T11:35:06;56616.03;;;23.25;100.00
6423;BME280;3244;42.708;23.288;2024-01-15T11:40:18;56616.03;;;23.26;100.00
6423;BME280;3244;42.708;23.288;2024-01-15T11:42:44;56616.03;;;-142.91;100.00
6423;BME280;3244;42.708;23.288;2024-01-15T11:45:11;56616.03;;;23.26;100.00
6423;BME280;3244;42.708;23.288;2024-01-15T11:48:08;56616.03;;;23.57;100.00
6423;BME280;3244;42.708;23.288;2024-01-15T11:50:39;56616.03;;;23.26;100.00
6423;BME280;3244;42.708;23.288;2024-01-15T11:53:26;56616.03;;;-142.91;100.00
6423;BME280;3244;42.708;23.288;2024-01-15T11:55:58;56616.03;;;23.25;100.00
6423;BME280;3244;42.708;23.288;2024-01-15T11:58:25;56616.03;;;-142.91;100.00
6423;BME280;3244;42.708;23.288;2024-01-15T12:00:52;56616.03;;;-142.91;100.00
6423;BME280;3244;42.708;23.288;2024-01-15T12:03:21;56616.03;;;-142.91;100.00
6423;BME280;3244;42.708;23.288;2024-01-15T12:05:49;56616.03;;;-142.91;100.00
6423;BME280;3244;42.708;23.288;2024-01-15T12:10:47;56616.03;;;23.25;100.00
6423;BME280;3244;42.708;23.288;2024-01-15T12:13:15;56616.03;;;-142.91;100.00
6423;BME280;3244;42.708;23.288;2024-01-15T12:15:44;56616.03;;;-142.91;100.00
6423;BME280;3244;42.708;23.288;2024-01-15T12:18:12;56616.03;;;-142.91;100.00
6423;BME280;3244;42.708;23.288;2024-01-15T12:20:41;56616.03;;;-142.91;100.00
6423;BME280;3244;42.708;23.288;2024-01-15T12:23:09;56616.03;;;-142.91;100.00
6423;BME280;3244;42.708;23.288;2024-01-15T12:25:36;56616.03;;;-142.91;100.00
6423;BME280;3244;42.708;23.288;2024-01-15T12:28:04;56616.03;;;-142.91;100.00
6423;BME280;3244;42.708;23.288;2024-01-15T12:30:33;56616.03;;;-142.91;100.00
6423;BME280;3244;42.708;23.288;2024-01-15T12:33:01;56616.03;;;23.25;100.00
6423;BME280;3244;42.708;23.288;2024-01-15T12:35:30;56616.03;;;-142.91;100.00
6423;BME280;3244;42.708;23.288;2024-01-15T12:37:59;56616.03;;;-142.91;100.00
6423;BME280;3244;42.708;23.288;2024-01-15T12:40:27;56616.03;;;-142.91;100.00
6423;BME280;3244;42.708;23.288;2024-01-15T12:42:55;56616.03;;;-142.91;100.00
6423;BME280;3244;42.708;23.288;2024-01-15T12:45:32;56616.03;;;-142.91;100.00
6423;BME280;3244;42.708;23.288;2024-01-15T12:48:00;56616.03;;;-142.91;100.00
6423;BME280;3244;42.708;23.288;2024-01-15T12:50:28;56616.03;;;23.26;100.00
6423;BME280;3244;42.708;23.288;2024-01-15T12:55:21;56616.03;;;23.26;100.00
6423;BME280;3244;42.708;23.288;2024-01-15T12:57:49;56616.03;;;23.25;100.00
6423;BME280;3244;42.708;23.288;2024-01-15T13:00:18;56616.03;;;23.27;100.00
6423;BME280;3244;42.708;23.288;2024-01-15T13:02:46;56616.03;;;23.26;100.00
6423;BME280;3244;42.708;23.288;2024-01-15T13:05:12;56616.03;;;23.25;100.00
6423;BME280;3244;42.708;23.288;2024-01-15T13:07:39;56616.03;;;23.27;100.00
6423;BME280;3244;42.708;23.288;2024-01-15T13:10:06;56616.03;;;23.25;100.00
6423;BME280;3244;42.708;23.288;2024-01-15T13:12:34;56616.03;;;23.27;100.00
6423;BME280;3244;42.708;23.288;2024-01-15T13:15:01;56616.03;;;-142.91;100.00
6423;BME280;3244;42.708;23.288;2024-01-15T13:17:28;56616.03;;;23.27;100.00
6423;BME280;3244;42.708;23.288;2024-01-15T13:19:57;56616.03;;;23.25;100.00
6423;BME280;3244;42.708;23.288;2024-01-15T13:22:23;56616.03;;;23.29;100.00
6423;BME280;3244;42.708;23.288;2024-01-15T13:24:54;56616.03;;;23.27;100.00
6423;BME280;3244;42.708;23.288;2024-01-15T13:27:21;56616.03;;;23.27;100.00
6423;BME280;3244;42.708;23.288;2024-01-15T13:29:48;56616.03;;;23.27;100.00
6423;BME280;3244;42.708;23.288;2024-01-15T13:32:17;56616.03;;;33.65;100.00
6423;BME280;3244;42.708;23.288;2024-01-15T13:34:49;56616.03;;;23.25;100.00
6423;BME280;3244;42.708;23.288;2024-01-15T13:37:17;56616.03;;;-142.91;100.00
6423;BME280;3244;42.708;23.288;2024-01-15T13:39:44;56616.03;;;23.29;100.00